Skip Navigation Links Skip Navigation Links

Current Weather

Willow Run, Detroit

For information only: do not use for flight planning or navigation.
Latest weather
Observation time Thursday, October 17, 2019 1:39 AM EDT
Local time Thursday, October 17, 2019 1:55 AM EDT
Flight conditions Marginal Visual Meteorological Conditions
Winds
Wind direction Northwest (310°)
Wind speed 20 mph
Wind gusting to 29 mph
Visibility 10 mi.
Sky condition
Ceiling 2,900 ft. broken clouds
Cloud layer broken clouds 2,900 ft.
Cloud layer overcast 3,700 ft.
Temperature 48°F
Dewpoint 37°F
Altimeter 29.82 in.Hg
Derived measurements
Relative humidity 66%
Wind chill 41°F
Density altitude 213 ft.
Remarks
Automated weather observing station with precipitation discriminator.
METAR KYIP 170539Z 31017G25KT 10SM BKN029 OVC037 09/03 A2982 RMK AO2 T00890028

Settings

Location code

InnerDrive.Weather 4.0.6770.0 Release CLR 4.0.30319.42000
Copyright ©2018 Inner Drive Technology. All rights reserved. Portions Copyright ©1986-2018 David Braverman.

Find weather

Site navigation


Skip Navigation Links

Place info

Page info

PayPal - The safer, easier way to pay online!

Return home.

Copyright ©2019 Inner Drive Technology. Purveyors of fine, hand-crafted computer software. Page printed 2019-10-17T05:55:13 UTC.